Terminal Aerodrome Forecast
Issued by NWS

Home | Current Version | Previous Version | Text Only | Print | Product List | Glossary On
Versions: 1 2 3 4 5 6 7 8 9 10 11 12 13
000
FTUS44 KTSA 301100
TAFMLC
TAF
KMLC 301120Z 3012/3112 00000KT P6SM SKC
     FM301500 21010KT P6SM SKC
     FM302100 32010KT P6SM SKC
     FM310000 35006KT P6SM SKC=

USA.gov is the U.S. government's official web portal to all federal, state and local government web resources and services.